Time;durP1;ratioP1;P1;durP2;ratioP2;P2;SDS_P1;SDS_P2;PMS_P1;PMS_P2;Temp;Humidity;BMP_temperature;BMP_pressure;BME280_temperature;BME280_humidity;BME280_pressure;Samples;Min_cycle;Max_cycle;Signal;HPM_P1;HPM_P2
2021/12/13 00:02:31;;;;;;;81.55;21.17;;;;;;;-3.79;100.00;99599.22;4368953;32;20200;-71
2021/12/13 00:05:25;;;;;;;97.25;24.00;;;;;;;-4.18;100.00;99547.50;4365158;32;20063;-70
2021/12/13 00:08:00;;;;;;;120.78;25.73;;;;;;;-4.02;100.00;99600.38;4367832;32;20095;-70
2021/12/13 00:10:36;;;;;;;107.80;25.73;;;;;;;-4.03;100.00;99592.62;4362430;32;20051;-71
2021/12/13 00:13:13;;;;;;;101.80;27.45;;;;;;;-3.98;100.00;99600.09;4361155;32;20039;-72
2021/12/13 00:15:56;;;;;;;97.32;25.90;;;;;;;-4.29;100.00;99556.41;4363272;32;20077;-70
2021/12/13 00:18:28;;;;;;;99.03;24.85;;;;;;;-3.98;100.00;99607.97;4365052;32;20081;-72
2021/12/13 00:21:07;;;;;;;81.12;21.50;;;;;;;-4.16;100.00;99556.09;4359116;32;20062;-69
2021/12/13 00:23:59;;;;;;;78.03;22.02;;;;;;;-3.87;100.00;99602.53;4362311;32;20073;-70
2021/12/13 00:26:37;;;;;;;65.20;18.75;;;;;;;-4.20;100.00;99602.03;4356537;32;20051;-70
2021/12/13 00:29:51;;;;;;;78.93;19.58;;;;;;;-4.24;100.00;99579.66;4357258;32;20052;-69
2021/12/13 00:32:37;;;;;;;89.50;23.15;;;;;;;-4.46;100.00;99557.94;4355048;32;20358;-69
2021/12/13 00:35:09;;;;;;;81.37;19.55;;;;;;;-4.47;100.00;99600.13;4354580;32;20050;-71
2021/12/13 00:37:39;;;;;;;74.60;22.27;;;;;;;-4.58;100.00;99556.41;4355769;32;20069;-70
2021/12/13 00:40:24;;;;;;;76.82;21.85;;;;;;;-4.28;100.00;99594.03;4354803;32;20064;-70
2021/12/13 00:42:56;;;;;;;75.05;20.40;;;;;;;-4.19;100.00;99608.97;4357386;32;20065;-70
2021/12/13 00:45:27;;;;;;;80.93;21.77;;;;;;;-4.47;100.00;99553.63;4356146;32;20069;-70
2021/12/13 00:47:54;;;;;;;70.40;20.77;;;;;;;-4.19;100.00;99611.59;4355431;32;20044;-70
2021/12/13 00:50:31;;;;;;;84.97;22.40;;;;;;;-4.40;100.00;99567.91;4366414;32;20090;-70
2021/12/13 00:52:59;;;;;;;75.72;22.05;;;;;;;-4.50;100.00;99580.22;4369174;32;20047;-71
2021/12/13 00:55:30;;;;;;;75.78;19.85;;;;;;;-4.42;100.00;99627.69;4369327;32;20291;-70
2021/12/13 00:58:18;;;;;;;65.87;19.20;;;;;;;-4.74;100.00;99578.00;4370572;32;20044;-70
2021/12/13 01:00:50;;;;;;;61.35;17.25;;;;;;;-4.65;100.00;99592.13;4367300;32;20061;-70
2021/12/13 01:03:22;;;;;;;59.17;16.45;;;;;;;-4.34;100.00;99636.66;4369384;32;20086;-69
2021/12/13 01:06:07;;;;;;;69.18;18.65;;;;;;;-4.28;100.00;99631.66;4370004;32;20039;-69
2021/12/13 01:09:11;;;;;;;72.15;17.77;;;;;;;-4.61;100.00;99630.28;4354291;32;20068;-70
2021/12/13 01:11:54;;;;;;;49.58;15.23;;;;;;;-4.68;100.00;99630.00;4355475;33;20422;-69
2021/12/13 01:14:34;;;;;;;;;;;;;;;-4.64;100.00;99638.44;4366367;32;20055;-69
2021/12/13 01:17:28;;;;;;;51.40;13.75;;;;;;;-4.70;100.00;99633.75;4357872;32;19938;-69
2021/12/13 01:21:13;;;;;;;56.55;16.98;;;;;;;-4.88;100.00;99629.16;4358019;32;20065;-69
2021/12/13 01:23:46;;;;;;;53.22;16.80;;;;;;;-5.01;100.00;99631.19;4348785;32;20040;-69
2021/12/13 01:28:58;;;;;;;77.15;17.12;;;;;;;-4.99;100.00;99621.41;4357481;32;20047;-68
2021/12/13 01:31:32;;;;;;;74.12;17.42;;;;;;;-4.84;100.00;99635.78;4358146;32;20066;-69
2021/12/13 01:34:03;;;;;;;62.13;18.15;;;;;;;-5.24;100.00;99581.53;4367771;32;20174;-70
2021/12/13 01:36:52;;;;;;;58.90;16.42;;;;;;;-4.95;100.00;99647.22;4369646;32;20036;-69
2021/12/13 01:42:03;;;;;;;55.50;15.60;;;;;;;-5.24;100.00;99597.28;4370918;32;20345;-70
2021/12/13 01:44:35;;;;;;;66.25;17.45;;;;;;;-5.01;100.00;99631.19;4372715;32;20116;-69
2021/12/13 01:47:08;;;;;;;62.80;17.55;;;;;;;-5.09;100.00;99620.53;4373023;32;20133;-69
2021/12/13 01:49:41;;;;;;;77.87;18.35;;;;;;;-5.34;100.00;99580.69;4372471;32;20076;-70
2021/12/13 01:52:16;;;;;;;70.62;18.48;;;;;;;-5.02;100.00;99626.91;4356256;32;20320;-70
2021/12/13 01:54:45;;;;;;;66.72;15.32;;;;;;;-4.96;100.00;99623.75;4357788;32;20044;-70
2021/12/13 01:59:54;;;;;;;59.47;16.92;;;;;;;-5.25;100.00;99565.91;4372336;32;20082;-70
2021/12/13 02:02:27;;;;;;;72.62;17.65;;;;;;;-5.39;100.00;99556.59;4358821;32;20047;-70
2021/12/13 02:05:18;;;;;;;56.15;16.05;;;;;;;-5.37;100.00;99565.19;4371635;32;20131;-71
2021/12/13 02:07:55;;;;;;;49.30;16.40;;;;;;;-5.01;100.00;99620.69;4371545;32;20039;-70
2021/12/13 02:10:33;;;;;;;50.85;14.52;;;;;;;-5.36;100.00;99566.84;4372527;32;20073;-70
2021/12/13 02:13:17;;;;;;;57.22;15.48;;;;;;;-5.27;100.00;99576.53;4371979;32;20062;-70
2021/12/13 02:18:34;;;;;;;46.53;14.87;;;;;;;-5.27;100.00;99575.72;4359489;32;20396;-70
2021/12/13 02:21:29;;;;;;;56.60;15.82;;;;;;;-5.36;100.00;99614.94;4355664;32;20065;-70
2021/12/13 02:24:11;;;;;;;45.25;13.20;;;;;;;-5.55;100.00;99584.19;4371180;32;20044;-70
2021/12/13 02:26:42;;;;;;;55.40;16.67;;;;;;;-5.47;100.00;99609.78;4370777;32;20039;-69
2021/12/13 02:29:17;;;;;;;55.95;14.70;;;;;;;-5.45;100.00;99614.91;4372031;32;20184;-69
2021/12/13 02:31:45;;;;;;;62.53;16.45;;;;;;;-5.41;100.00;99608.41;4371371;32;20032;-70
2021/12/13 02:34:15;;;;;;;59.80;17.12;;;;;;;-5.76;100.00;99558.03;4372025;32;20044;-70
2021/12/13 02:36:47;;;;;;;56.80;14.98;;;;;;;-5.84;100.00;99553.44;4371462;32;20053;-69
2021/12/13 02:39:21;;;;;;;54.00;15.18;;;;;;;-5.77;100.00;99563.41;4372171;32;20064;-70
2021/12/13 02:41:49;;;;;;;46.13;14.52;;;;;;;-5.52;100.00;99615.44;4372374;32;20023;-72
2021/12/13 02:44:28;;;;;;;45.00;13.68;;;;;;;-5.78;100.00;99561.72;4369842;32;20036;-71
2021/12/13 02:46:58;;;;;;;60.88;14.30;;;;;;;-5.54;100.00;99612.09;4370014;32;20039;-70
2021/12/13 02:49:25;;;;;;;39.70;13.90;;;;;;;-6.13;100.00;99573.44;4363138;32;20040;-69
2021/12/13 02:51:58;;;;;;;44.55;14.30;;;;;;;-5.79;100.00;99628.25;4357287;32;20093;-70
2021/12/13 02:54:30;;;;;;;50.28;14.70;;;;;;;-5.62;100.00;99625.03;4357221;32;20270;-70
2021/12/13 02:57:11;;;;;;;49.67;13.43;;;;;;;-5.84;100.00;99619.00;4371793;32;20039;-70
2021/12/13 03:03:13;;;;;;;44.15;15.77;;;;;;;-5.83;100.00;99611.97;4368624;32;20048;-70
2021/12/13 03:05:44;;;;;;;67.15;13.98;;;;;;;-5.93;100.00;99601.41;4371187;32;20047;-70
2021/12/13 03:08:22;;;;;;;42.58;14.48;;;;;;;-5.91;100.00;99604.72;4371947;32;20048;-70
2021/12/13 03:10:53;;;;;;;45.10;13.70;;;;;;;-6.07;100.00;99572.94;4370266;32;20051;-70
2021/12/13 03:13:20;;;;;;;40.65;13.93;;;;;;;-5.72;100.00;99611.87;4370664;32;20052;-70
2021/12/13 03:16:01;;;;;;;49.22;13.00;;;;;;;-5.69;100.00;99618.66;4369511;32;20043;-70
2021/12/13 03:18:41;;;;;;;46.90;13.30;;;;;;;-5.70;100.00;99611.75;4356670;32;20040;-70
2021/12/13 03:21:36;;;;;;;43.75;14.45;;;;;;;-5.63;100.00;99605.03;4370597;32;20051;-70
2021/12/13 03:24:36;;;;;;;54.85;15.05;;;;;;;-5.97;100.00;99615.78;4370741;32;20525;-70
2021/12/13 03:27:47;;;;;;;44.15;14.15;;;;;;;-6.14;100.00;99598.00;4370954;32;20040;-70
2021/12/13 03:30:33;;;;;;;54.30;15.60;;;;;;;-5.89;100.00;99608.06;4350299;32;20066;-70
2021/12/13 03:33:13;;;;;;;47.35;14.13;;;;;;;-5.93;100.00;99601.41;4368393;32;20961;-70
2021/12/13 03:35:42;;;;;;;59.38;15.32;;;;;;;-5.93;100.00;99604.03;4370663;32;20051;-70
2021/12/13 03:38:13;;;;;;;57.25;15.95;;;;;;;-6.00;100.00;99584.56;4370668;32;20043;-71
2021/12/13 03:40:40;;;;;;;52.45;15.10;;;;;;;-6.01;100.00;99603.91;4365990;32;20068;-70
2021/12/13 03:43:14;;;;;;;61.05;13.68;;;;;;;-6.10;100.00;99595.00;4356248;32;20053;-71
2021/12/13 03:45:49;;;;;;;46.70;14.30;;;;;;;-6.54;100.00;99528.78;4370536;32;20065;-71
2021/12/13 03:48:20;;;;;;;48.50;14.10;;;;;;;-5.89;100.00;99601.97;4369561;32;20051;-70
2021/12/13 03:50:53;;;;;;;55.90;13.07;;;;;;;-5.87;100.00;99585.16;4370830;32;20066;-69
2021/12/13 03:53:29;;;;;;;58.05;14.68;;;;;;;-5.82;100.00;99602.28;4371295;32;20135;-70
2021/12/13 03:56:02;;;;;;;72.82;16.17;;;;;;;-5.84;100.00;99598.03;4369411;32;20319;-71
2021/12/13 03:58:32;;;;;;;;;;;;;;;-5.74;100.00;99594.63;4358109;32;20059;-70
2021/12/13 04:01:14;;;;;;;52.92;16.17;;;;;;;-5.96;100.00;99600.88;4369643;32;19947;-70
2021/12/13 04:03:43;;;;;;;44.28;12.20;;;;;;;-6.05;100.00;99602.47;4367951;32;20051;-71
2021/12/13 04:06:14;;;;;;;56.58;14.87;;;;;;;-6.09;100.00;99607.16;4370518;32;20175;-71
2021/12/13 04:08:43;;;;;;;45.72;14.48;;;;;;;-6.48;100.00;99558.87;4370797;32;20072;-71
2021/12/13 04:11:11;;;;;;;61.37;17.73;;;;;;;-7.17;100.00;99439.72;4370722;32;20032;-70
2021/12/13 04:13:42;;;;;;;48.60;15.10;;;;;;;-6.34;100.00;99602.28;4367828;32;20353;-71
2021/12/13 04:16:47;;;;;;;71.15;17.62;;;;;;;-6.35;100.00;99598.84;4370643;32;20044;-71
2021/12/13 04:19:23;;;;;;;67.85;17.02;;;;;;;-6.34;100.00;99602.28;4368934;32;20416;-71
2021/12/13 04:22:03;;;;;;;67.32;16.83;;;;;;;-6.39;100.00;99607.91;4356870;32;20106;-71
2021/12/13 04:24:44;;;;;;;62.85;16.37;;;;;;;-6.45;100.00;99579.59;4366163;32;20175;-70
2021/12/13 04:27:25;;;;;;;56.53;15.30;;;;;;;-6.53;100.00;99576.78;4369024;32;20180;-71
2021/12/13 04:29:56;;;;;;;50.40;15.15;;;;;;;-6.52;100.00;99555.69;4354659;32;20101;-71
2021/12/13 04:32:29;;;;;;;54.17;16.75;;;;;;;-6.42;100.00;99568.84;4368515;32;20089;-71
2021/12/13 04:34:59;;;;;;;63.83;16.95;;;;;;;-6.31;100.00;99602.88;4369960;32;20098;-71
2021/12/13 04:37:38;;;;;;;61.03;15.80;;;;;;;-6.52;100.00;99553.06;4370400;32;20039;-71
2021/12/13 04:40:12;;;;;;;59.08;17.00;;;;;;;-6.11;100.00;99616.09;4369848;32;20431;-72
2021/12/13 04:42:41;;;;;;;63.90;17.05;;;;;;;-6.00;100.00;99621.28;4357077;32;20165;-71
2021/12/13 04:45:09;;;;;;;67.40;19.15;;;;;;;-6.23;100.00;99610.91;4369919;32;20065;-71
2021/12/13 04:48:01;;;;;;;81.70;21.55;;;;;;;-6.42;100.00;99561.81;4368736;32;20040;-71
2021/12/13 04:50:34;;;;;;;53.05;16.50;;;;;;;-6.36;100.00;99610.28;4369371;32;20070;-71
2021/12/13 04:53:01;;;;;;;55.12;16.35;;;;;;;-6.78;100.00;99557.81;4370441;32;20069;-69
2021/12/13 04:55:34;;;;;;;54.72;17.45;;;;;;;-6.78;100.00;99563.91;4367027;32;20442;-70
2021/12/13 04:58:08;;;;;;;56.65;16.52;;;;;;;-6.57;100.00;99608.47;4370454;32;20059;-69
2021/12/13 05:00:44;;;;;;;66.07;18.02;;;;;;;-6.57;100.00;99608.47;4369793;32;20065;-70
2021/12/13 05:03:13;;;;;;;62.97;18.73;;;;;;;-7.00;100.00;99554.34;4361194;32;20073;-70
2021/12/13 05:05:40;;;;;;;59.42;16.23;;;;;;;-6.59;100.00;99613.00;4338255;33;20039;-70
2021/12/13 05:08:10;;;;;;;53.58;15.98;;;;;;;-6.65;100.00;99575.97;4355320;33;20601;-69
2021/12/13 05:10:37;;;;;;;68.18;18.50;;;;;;;-6.34;100.00;99618.84;4354070;33;20048;-70
2021/12/13 05:13:19;;;;;;;59.13;15.77;;;;;;;-6.38;100.00;99617.44;4355442;33;20069;-70
2021/12/13 05:15:59;;;;;;;57.83;15.20;;;;;;;-6.40;100.00;99614.97;4364670;32;20951;-70
2021/12/13 05:18:29;;;;;;;66.00;18.00;;;;;;;-6.43;100.00;99624.84;4361498;32;20051;-70
2021/12/13 05:21:08;;;;;;;60.78;17.40;;;;;;;-6.42;100.00;99629.94;4363969;32;20443;-70
2021/12/13 05:23:55;;;;;;;65.60;17.98;;;;;;;-6.42;100.00;99626.50;4341934;33;20043;-70
2021/12/13 05:26:43;;;;;;;52.13;16.45;;;;;;;-6.38;100.00;99630.56;4357789;32;20040;-71
2021/12/13 05:29:21;;;;;;;60.97;17.50;;;;;;;-6.44;100.00;99631.88;4363053;32;20111;-70
2021/12/13 05:32:04;;;;;;;64.15;19.98;;;;;;;-6.52;100.00;99636.09;4363357;32;20406;-71
2021/12/13 05:34:36;;;;;;;62.17;16.95;;;;;;;-6.94;100.00;99580.03;4354347;32;20024;-70
2021/12/13 05:37:06;;;;;;;51.28;14.40;;;;;;;-6.94;100.00;99585.28;4370369;32;20455;-70
2021/12/13 05:39:35;;;;;;;62.50;16.67;;;;;;;-6.67;100.00;99625.91;4362167;32;20376;-72
2021/12/13 05:42:08;;;;;;;51.40;16.48;;;;;;;-6.55;100.00;99625.88;4354938;32;20090;-70
2021/12/13 05:44:42;;;;;;;64.12;19.52;;;;;;;-6.89;100.00;99577.06;4363576;32;20449;-70
2021/12/13 05:47:22;;;;;;;56.53;17.12;;;;;;;-6.69;100.00;99630.41;4353952;32;20044;-70
2021/12/13 05:49:52;;;;;;;60.83;18.10;;;;;;;-6.75;100.00;99623.03;4359462;32;20358;-70
2021/12/13 05:52:31;;;;;;;60.33;17.27;;;;;;;-6.72;100.00;99628.03;4353756;32;20362;-69
2021/12/13 05:55:09;;;;;;;57.10;17.73;;;;;;;-6.75;100.00;99636.16;4369329;32;20031;-70
2021/12/13 05:57:42;;;;;;;52.30;15.38;;;;;;;-6.69;100.00;99646.12;4368614;32;20043;-70
2021/12/13 06:00:24;;;;;;;64.55;18.25;;;;;;;-6.89;100.00;99597.16;4367945;32;20051;-70
2021/12/13 06:03:09;;;;;;;55.13;16.03;;;;;;;-6.57;100.00;99653.00;4356261;32;20039;-69
2021/12/13 06:05:41;;;;;;;57.83;17.45;;;;;;;-6.42;100.00;99652.72;4371794;32;20151;-69
2021/12/13 06:08:12;;;;;;;64.22;19.02;;;;;;;-6.36;100.00;99657.47;4369261;32;20077;-69
2021/12/13 06:10:58;;;;;;;60.30;15.98;;;;;;;-6.34;100.00;99644.22;4362435;32;20384;-71
2021/12/13 06:13:43;;;;;;;54.42;18.17;;;;;;;-6.36;100.00;99646.97;4357603;32;20040;-70
2021/12/13 06:16:19;;;;;;;52.45;17.45;;;;;;;-6.53;100.00;99608.22;4362374;32;20054;-71
2021/12/13 06:18:57;;;;;;;51.80;17.27;;;;;;;-6.46;100.00;99609.38;4359332;32;20087;-70
2021/12/13 06:21:33;;;;;;;51.33;16.45;;;;;;;-6.25;100.00;99662.66;4357726;32;20051;-70
2021/12/13 06:24:08;;;;;;;46.85;16.27;;;;;;;-6.35;100.00;99656.50;4354489;32;20346;-70
2021/12/13 06:26:35;;;;;;;57.00;17.48;;;;;;;-6.31;100.00;99664.94;4363557;32;20047;-69
2021/12/13 06:29:06;;;;;;;53.60;17.80;;;;;;;-6.14;100.00;99671.41;4371515;32;20070;-69
2021/12/13 06:31:39;;;;;;;54.47;16.10;;;;;;;-6.07;100.00;99672.56;4355684;32;20037;-69
2021/12/13 06:34:11;;;;;;;59.97;17.37;;;;;;;-6.07;100.00;99672.56;4361007;32;20093;-69
2021/12/13 06:36:39;;;;;;;45.65;14.13;;;;;;;-6.05;100.00;99682.00;4372417;32;20057;-69
2021/12/13 06:39:16;;;;;;;54.13;17.42;;;;;;;-6.09;100.00;99666.63;4372231;32;20085;-68
2021/12/13 06:41:58;;;;;;;55.80;16.37;;;;;;;-5.96;100.00;99685.59;4370436;32;20399;-70
2021/12/13 06:44:29;;;;;;;57.75;17.08;;;;;;;-6.19;100.00;99636.88;4364659;32;20108;-69
2021/12/13 06:47:08;;;;;;;58.58;20.42;;;;;;;-6.10;100.00;99641.38;4369965;32;20049;-69
2021/12/13 06:49:41;;;;;;;58.63;17.52;;;;;;;-6.07;100.00;99641.09;4369043;32;20074;-69
2021/12/13 06:52:08;;;;;;;;;;;;;;;-6.02;100.00;99650.25;4372389;32;20354;-69
2021/12/13 06:54:47;;;;;;;47.20;17.87;;;;;;;-5.70;100.00;99690.44;4369828;32;19938;-69
2021/12/13 06:57:19;;;;;;;66.65;18.08;;;;;;;-5.63;100.00;99691.62;4355958;32;20373;-70
2021/12/13 06:59:52;;;;;;;52.15;15.98;;;;;;;-5.91;100.00;99641.44;4355078;32;20924;-69
2021/12/13 07:02:24;;;;;;;66.68;19.20;;;;;;;-5.58;100.00;99685.97;4355842;32;20081;-68
2021/12/13 07:05:35;;;;;;;56.72;19.58;;;;;;;-5.78;100.00;99646.50;4364430;32;20035;-69
2021/12/13 07:08:08;;;;;;;53.80;18.35;;;;;;;-5.33;100.00;99698.69;4296209;33;20438;-68
2021/12/13 07:10:45;;;;;;;51.22;17.95;;;;;;;-5.40;100.00;99686.19;4293826;33;20055;-70
2021/12/13 07:13:32;;;;;;;62.17;18.35;;;;;;;-5.47;100.00;99670.16;4288120;33;20103;-70
2021/12/13 07:16:07;;;;;;;57.70;18.52;;;;;;;-5.17;100.00;99708.69;4293450;33;20037;-71
2021/12/13 07:18:47;;;;;;;64.25;21.27;;;;;;;-5.11;100.00;99708.16;4296343;33;20080;-70
2021/12/13 07:21:34;;;;;;;58.92;18.95;;;;;;;-5.07;100.00;99698.22;4296211;33;20025;-70
2021/12/13 07:24:13;;;;;;;50.35;19.05;;;;;;;-4.98;100.00;99717.59;4282635;33;20900;-70
2021/12/13 07:26:58;;;;;;;58.20;19.52;;;;;;;-5.16;100.00;99676.19;4295666;33;20033;-69
2021/12/13 07:29:35;;;;;;;58.53;17.48;;;;;;;-4.86;100.00;99713.91;4294772;33;20033;-69
2021/12/13 07:32:13;;;;;;;70.45;20.10;;;;;;;-4.84;100.00;99709.34;4295953;33;20060;-70
2021/12/13 07:34:48;;;;;;;69.90;22.48;;;;;;;-4.69;100.00;99722.09;4283499;33;20367;-70
2021/12/13 07:37:15;;;;;;;78.80;23.48;;;;;;;-4.59;100.00;99723.81;4294936;33;20051;-70
2021/12/13 07:39:43;;;;;;;66.53;23.67;;;;;;;-4.87;100.00;99662.31;4355804;32;20032;-70
2021/12/13 07:42:13;;;;;;;67.20;22.52;;;;;;;-4.84;100.00;99664.69;4371518;32;20032;-70
2021/12/13 07:44:46;;;;;;;70.43;24.15;;;;;;;-4.44;100.00;99726.87;4371012;32;20032;-70
2021/12/13 07:47:19;;;;;;;70.15;22.75;;;;;;;-4.34;100.00;99736.56;4369561;32;20065;-70
2021/12/13 07:49:52;;;;;;;69.12;24.90;;;;;;;-4.33;100.00;99728.53;4370817;32;20065;-70
2021/12/13 07:52:35;;;;;;;64.93;24.05;;;;;;;-4.47;100.00;99737.66;4371298;32;20036;-70
2021/12/13 07:55:19;;;;;;;69.60;24.15;;;;;;;-4.79;100.00;99691.38;4369678;32;20100;-70
2021/12/13 07:57:46;;;;;;;75.60;23.65;;;;;;;-4.84;100.00;99698.84;4371023;32;20031;-69
2021/12/13 08:00:24;;;;;;;74.87;24.65;;;;;;;-4.49;100.00;99734.34;4370713;32;20065;-70
2021/12/13 08:03:02;;;;;;;61.97;23.45;;;;;;;-4.43;100.00;99749.56;4369079;32;20086;-69
2021/12/13 08:05:38;;;;;;;65.07;20.45;;;;;;;-4.50;100.00;99742.34;4370214;32;20035;-69
2021/12/13 08:08:14;;;;;;;71.37;25.10;;;;;;;-4.76;100.00;99683.22;4370489;32;20035;-70
2021/12/13 08:10:43;;;;;;;70.62;24.85;;;;;;;-4.72;100.00;99732.88;4369785;32;20057;-71
2021/12/13 08:13:20;;;;;;;67.53;22.58;;;;;;;-4.79;100.00;99725.53;4371083;32;20052;-70
2021/12/13 08:15:53;;;;;;;66.07;21.83;;;;;;;-4.79;100.00;99738.66;4370483;32;20039;-70
2021/12/13 08:18:31;;;;;;;65.55;24.02;;;;;;;-4.62;100.00;99741.66;4357575;32;20088;-71
2021/12/13 08:21:00;;;;;;;70.50;22.95;;;;;;;-4.65;100.00;99744.53;4354254;32;20040;-69
2021/12/13 08:23:35;;;;;;;86.97;25.58;;;;;;;-4.44;100.00;99752.34;4355365;32;20040;-69
2021/12/13 08:26:06;;;;;;;79.80;26.62;;;;;;;-4.53;100.00;99753.12;4357489;32;20149;-70
2021/12/13 08:28:40;;;;;;;71.25;24.17;;;;;;;-4.52;100.00;99753.00;4368718;32;20057;-68
2021/12/13 08:31:18;;;;;;;74.00;26.05;;;;;;;-4.72;100.00;99701.34;4367506;32;20073;-69
2021/12/13 08:33:55;;;;;;;76.30;26.30;;;;;;;-4.39;100.00;99750.97;4368026;32;20051;-69
2021/12/13 08:36:30;;;;;;;83.72;26.80;;;;;;;-4.93;100.00;99647.09;4370713;32;20044;-68
2021/12/13 08:39:15;;;;;;;80.32;27.23;;;;;;;-4.28;100.00;99763.16;4370229;32;20350;-68
2021/12/13 08:41:57;;;;;;;72.65;24.73;;;;;;;-4.13;100.00;99760.13;4367198;32;20083;-69
2021/12/13 08:44:32;;;;;;;67.65;22.65;;;;;;;-4.43;100.00;99717.19;4369345;32;20095;-70
2021/12/13 08:47:03;;;;;;;62.33;21.77;;;;;;;-4.14;100.00;99763.75;4361708;32;20027;-71
2021/12/13 08:49:37;;;;;;;65.93;23.83;;;;;;;-4.01;100.00;99759.84;4368475;32;20040;-71
2021/12/13 08:52:17;;;;;;;74.82;24.65;;;;;;;-4.09;100.00;99761.53;4369555;32;20047;-69
2021/12/13 08:55:11;;;;;;;73.95;22.92;;;;;;;-4.30;100.00;99759.00;4359786;32;20085;-69
2021/12/13 08:57:50;;;;;;;;;;;;;;;-4.41;100.00;99766.03;4356713;32;20090;-69
2021/12/13 09:00:23;;;;;;;74.87;22.77;;;;;;;-4.38;100.00;99757.87;4361836;32;20064;-69
2021/12/13 09:02:55;;;;;;;74.68;25.62;;;;;;;-4.26;100.00;99760.38;4354046;32;20040;-69
2021/12/13 09:05:25;;;;;;;;;;;;;;;-4.26;100.00;99766.50;4364816;32;20073;-70
2021/12/13 09:07:59;;;;;;;73.72;22.20;;;;;;;-4.26;100.00;99755.13;4357154;32;19945;-71
2021/12/13 09:10:52;;;;;;;74.55;25.20;;;;;;;-4.21;100.00;99758.19;4353281;32;20063;-70
2021/12/13 09:13:36;;;;;;;78.05;27.90;;;;;;;-4.25;100.00;99746.28;4368666;32;20421;-71
2021/12/13 09:16:03;;;;;;;85.30;26.85;;;;;;;-4.18;100.00;99764.97;4353352;32;20373;-70
2021/12/13 09:18:29;;;;;;;85.78;26.33;;;;;;;-3.94;100.00;99769.81;4363641;32;20077;-70
2021/12/13 09:20:57;;;;;;;82.53;27.08;;;;;;;-4.06;100.00;99725.25;4354567;33;20031;-70
2021/12/13 09:23:35;;;;;;;88.03;26.33;;;;;;;-3.93;100.00;99719.69;4355180;33;20044;-70
2021/12/13 09:26:15;;;;;;;70.85;23.40;;;;;;;-3.56;100.00;99757.63;4358774;32;20087;-70
2021/12/13 09:28:51;;;;;;;99.90;28.35;;;;;;;-3.33;100.00;99771.31;4352364;32;20069;-70
2021/12/13 09:31:26;;;;;;;101.07;30.23;;;;;;;-3.58;100.00;99727.97;4357531;32;20057;-71
2021/12/13 09:33:58;;;;;;;95.35;30.98;;;;;;;-3.37;100.00;99748.87;4353402;32;20036;-73
2021/12/13 09:36:29;;;;;;;105.43;31.35;;;;;;;-3.08;100.00;99776.94;4341384;33;20042;-73
2021/12/13 09:39:31;;;;;;;100.95;30.10;;;;;;;-2.99;100.00;99771.63;4355955;33;20373;-73
2021/12/13 09:41:58;;;;;;;92.00;32.22;;;;;;;-2.98;100.00;99778.56;4358201;32;20074;-72
2021/12/13 09:44:30;;;;;;;99.25;32.17;;;;;;;-3.08;100.00;99772.47;4357883;32;20076;-73
2021/12/13 09:47:05;;;;;;;93.15;29.45;;;;;;;-3.13;100.00;99780.00;4364944;32;20040;-74
2021/12/13 09:49:46;;;;;;;95.80;29.75;;;;;;;-2.76;100.00;99761.56;4351864;32;20078;-75
2021/12/13 09:52:28;;;;;;;94.57;31.27;;;;;;;-2.35;100.00;99773.56;4369483;32;20358;-74
2021/12/13 09:55:14;;;;;;;85.03;30.02;;;;;;;-2.39;100.00;99765.13;4357712;32;20053;-76
2021/12/13 09:57:50;;;;;;;85.22;28.27;;;;;;;-2.15;100.00;99774.25;4366858;32;20056;-74
2021/12/13 10:00:35;;;;;;;89.00;27.48;;;;;;;-1.91;100.00;99774.50;4357130;32;20357;-74
2021/12/13 10:03:08;;;;;;;81.10;28.17;;;;;;;-1.75;100.00;99776.47;4356924;32;20074;-74
2021/12/13 10:05:41;;;;;;;84.55;28.42;;;;;;;-1.74;100.00;99766.72;4355992;32;20389;-74
2021/12/13 10:08:14;;;;;;;101.38;32.17;;;;;;;-2.11;100.00;99720.22;4342959;32;21527;-75
2021/12/13 10:10:53;;;;;;;101.55;34.38;;;;;;;-1.77;100.00;99761.75;4370264;32;20208;-74
2021/12/13 10:13:24;;;;;;;104.25;32.97;;;;;;;-2.28;100.00;99691.06;4371610;32;20434;-74
2021/12/13 10:15:58;;;;;;;89.35;29.85;;;;;;;-1.64;100.00;99780.69;4369604;32;20065;-77
2021/12/13 10:18:29;;;;;;;91.32;32.78;;;;;;;-1.69;100.00;99772.37;4355812;32;20083;-75
2021/12/13 10:20:59;;;;;;;87.03;31.50;;;;;;;-1.77;100.00;99777.59;4356750;32;20043;-74
2021/12/13 10:23:31;;;;;;;88.30;29.87;;;;;;;-1.75;100.00;99775.66;4359095;32;20039;-74
2021/12/13 10:26:01;;;;;;;101.90;35.20;;;;;;;-2.05;100.00;99735.44;4351562;32;20065;-74
2021/12/13 10:28:32;;;;;;;94.60;32.58;;;;;;;-1.96;100.00;99779.41;4356781;32;20039;-74
2021/12/13 10:31:08;;;;;;;101.32;37.35;;;;;;;-1.93;100.00;99765.94;4356436;32;20377;-74
2021/12/13 10:33:39;;;;;;;98.35;36.65;;;;;;;-1.80;100.00;99752.34;4356196;32;20031;-74
2021/12/13 10:36:08;;;;;;;92.47;34.95;;;;;;;-2.22;100.00;99702.78;4361959;32;20811;-74
2021/12/13 10:38:43;;;;;;;101.78;35.50;;;;;;;-1.90;100.00;99731.31;4371063;32;20031;-74
2021/12/13 10:41:14;;;;;;;100.55;33.65;;;;;;;-1.63;100.00;99769.12;4370736;32;20053;-74
2021/12/13 10:43:46;;;;;;;98.68;34.97;;;;;;;-1.50;100.00;99764.31;4369471;32;20392;-74
2021/12/13 10:46:18;;;;;;;97.18;33.17;;;;;;;-1.56;100.00;99764.09;4362455;32;20062;-74
2021/12/13 10:48:50;;;;;;;91.22;34.42;;;;;;;-1.68;100.00;99718.59;4363516;32;20069;-74
2021/12/13 10:51:25;;;;;;;102.05;37.10;;;;;;;-1.44;100.00;99749.63;4355293;32;20346;-74
2021/12/13 10:53:53;;;;;;;99.75;36.70;;;;;;;-1.18;100.00;99768.16;4358974;32;20609;-74
2021/12/13 10:56:34;;;;;;;100.62;36.05;;;;;;;-1.22;100.00;99772.09;4344936;32;20066;-73
2021/12/13 10:59:08;;;;;;;93.03;34.53;;;;;;;-1.33;100.00;99722.12;4361768;32;20178;-73
2021/12/13 11:01:41;;;;;;;100.95;33.17;;;;;;;-0.97;100.00;99774.91;4344056;32;20034;-74
2021/12/13 11:04:11;;;;;;;128.02;38.00;;;;;;;-1.19;100.00;99740.06;4360271;32;20179;-74
2021/12/13 11:06:42;;;;;;;265.33;66.30;;;;;;;-0.79;100.00;99767.69;4343915;32;20346;-74
2021/12/13 11:09:16;;;;;;;106.57;35.63;;;;;;;-0.70;100.00;99715.69;4356975;32;20051;-74
2021/12/13 11:11:50;;;;;;;94.03;35.47;;;;;;;-0.43;100.00;99764.03;4356642;32;20055;-74
2021/12/13 11:14:20;;;;;;;125.45;37.28;;;;;;;-0.38;100.00;99764.41;4356811;32;20154;-75
2021/12/13 11:16:52;;;;;;;133.27;41.20;;;;;;;-0.22;100.00;99768.91;4356020;32;20050;-74
2021/12/13 11:19:23;;;;;;;161.18;46.63;;;;;;;-0.53;100.00;99729.78;4360093;32;20044;-75
2021/12/13 11:21:54;;;;;;;156.77;45.75;;;;;;;-0.42;100.00;99763.88;4352238;32;20048;-73
2021/12/13 11:24:24;;;;;;;142.65;44.72;;;;;;;-0.40;100.00;99746.03;4355958;32;20057;-73
2021/12/13 11:26:55;;;;;;;139.52;43.63;;;;;;;-0.56;100.00;99698.34;4356525;32;20028;-72
2021/12/13 11:29:22;;;;;;;129.40;43.50;;;;;;;-0.26;100.00;99736.63;4354244;32;20060;-73
2021/12/13 11:32:00;;;;;;;137.12;47.70;;;;;;;-0.37;100.00;99719.25;4341701;33;20389;-72
2021/12/13 11:34:53;;;;;;;112.50;40.15;;;;;;;-0.47;100.00;99718.56;4355732;32;20091;-72
2021/12/13 11:37:44;;;;;;;111.90;42.92;;;;;;;-0.33;100.00;99753.34;4358761;32;20042;-73
2021/12/13 11:40:44;;;;;;;120.25;42.30;;;;;;;-0.54;100.00;99709.63;4359686;32;20422;-73
2021/12/13 11:43:20;;;;;;;112.53;38.10;;;;;;;-0.29;100.00;99752.00;4366126;32;20066;-72
2021/12/13 11:46:06;;;;;;;128.90;42.13;;;;;;;-0.34;100.00;99741.09;4364719;32;20168;-73
2021/12/13 11:48:41;;;;;;;134.77;42.58;;;;;;;-0.24;100.00;99750.56;4354716;32;20061;-72
2021/12/13 11:51:37;;;;;;;186.65;59.28;;;;;;;-0.16;100.00;99752.38;4354399;32;20066;-73
2021/12/13 11:54:41;;;;;;;144.95;47.62;;;;;;;-0.38;100.00;99707.00;4342911;32;20426;-74
2021/12/13 11:57:49;;;;;;;109.07;37.28;;;;;;;0.02;100.00;99754.91;4356285;32;20055;-74
2021/12/13 12:00:31;;;;;;;91.95;34.03;;;;;;;0.21;100.00;99748.47;4353258;32;20111;-75
2021/12/13 12:03:16;;;;;;;;;;;;;;;0.10;100.00;99709.06;4342136;33;20048;-74
2021/12/13 12:06:04;;;;;;;101.93;33.70;;;;;;;0.35;100.00;99747.81;4355597;32;19978;-75
2021/12/13 12:09:08;;;;;;;99.13;36.53;;;;;;;0.18;100.00;99749.59;4355895;32;20457;-74